createdAt,value
2023-01-29T00:04:27.069Z,79230.41
2023-01-29T00:11:29.098Z,79222.22
2023-01-29T00:18:31.741Z,79218.13
2023-01-29T00:25:33.769Z,79212.00
2023-01-29T00:32:36.505Z,79209.94
2023-01-29T00:39:47.869Z,79199.72
2023-01-29T00:46:50.393Z,79189.50
2023-01-29T00:53:52.475Z,79189.50
2023-01-29T01:00:56.301Z,79162.91
2023-01-29T01:07:59.169Z,79171.09
2023-01-29T01:15:01.288Z,79169.06
2023-01-29T01:22:05.171Z,79177.22
2023-01-29T01:29:07.419Z,79164.97
2023-01-29T01:36:10.053Z,79179.28
2023-01-29T01:43:12.035Z,79183.38
2023-01-29T01:50:21.277Z,79171.09
2023-01-29T01:57:25.199Z,79167.00
2023-01-29T02:04:45.593Z,79167.00
2023-01-29T02:11:47.715Z,79158.81
2023-01-29T02:18:50.593Z,79158.81
2023-01-29T02:25:55.402Z,79154.72
2023-01-29T02:33:07.727Z,79144.50
2023-01-29T02:40:13.552Z,79142.47
2023-01-29T02:47:23.366Z,79140.41
2023-01-29T02:54:30.802Z,79130.19
2023-01-29T03:01:37.944Z,79130.19
2023-01-29T03:08:43.626Z,79148.59
2023-01-29T03:15:55.121Z,79144.50
2023-01-29T03:23:01.635Z,79144.50
2023-01-29T03:30:24.226Z,79130.19
2023-01-29T03:37:26.262Z,79134.28
2023-01-29T03:45:18.819Z,79115.88
2023-01-29T03:52:35.951Z,79105.66
2023-01-29T03:59:53.792Z,79093.38
2023-01-29T04:06:58.636Z,79077.03
2023-01-29T04:14:04.895Z,79072.94
2023-01-29T04:21:10.119Z,79070.88
2023-01-29T04:28:29.399Z,79062.69
2023-01-29T04:35:51.368Z,79068.84
2023-01-29T04:43:05.475Z,79060.66
2023-01-29T04:50:24.136Z,79042.25
2023-01-29T04:58:15.861Z,79017.72
2023-01-29T05:05:20.608Z,79015.66
2023-01-29T05:12:25.701Z,79007.50
2023-01-29T05:19:27.802Z,79003.41
2023-01-29T05:26:48.168Z,78997.25
2023-01-29T05:33:50.159Z,78982.94
2023-01-29T05:40:52.255Z,78987.03
2023-01-29T05:48:01.051Z,78987.03
2023-01-29T05:55:02.993Z,78989.09
2023-01-29T06:02:05.131Z,78989.09
2023-01-29T06:09:07.189Z,78985.00
2023-01-29T06:16:09.793Z,78982.94
2023-01-29T06:23:11.795Z,78972.72
2023-01-29T06:30:14.422Z,78989.09
2023-01-29T06:37:16.433Z,78989.09
2023-01-29T06:44:18.340Z,78985.00
2023-01-29T06:51:21.637Z,78991.13
2023-01-29T06:58:23.596Z,78995.22
2023-01-29T07:05:25.858Z,78993.16
2023-01-29T07:12:27.837Z,79003.41
2023-01-29T07:19:30.188Z,78999.31
2023-01-29T07:26:33.141Z,78995.22
2023-01-29T07:33:35.235Z,78982.94
2023-01-29T07:40:37.290Z,78982.94
2023-01-29T07:47:39.406Z,78982.94
2023-01-29T07:54:41.482Z,78974.78
2023-01-29T08:01:43.536Z,78980.91
2023-01-29T08:08:45.563Z,78980.91
2023-01-29T08:15:47.604Z,78974.78
2023-01-29T08:22:50.157Z,78958.41
2023-01-29T08:29:52.375Z,78940.00
2023-01-29T08:36:56.430Z,78933.88
2023-01-29T08:44:02.753Z,78909.31
2023-01-29T08:51:08.771Z,78903.19
2023-01-29T08:58:15.814Z,78897.06
2023-01-29T09:05:22.151Z,78901.16
2023-01-29T09:12:27.919Z,78892.97
2023-01-29T09:19:36.445Z,78890.94
2023-01-29T09:26:42.186Z,78880.69
2023-01-29T09:33:45.777Z,78876.59
2023-01-29T09:41:17.676Z,78866.38
2023-01-29T09:48:24.384Z,78856.16
2023-01-29T09:55:54.973Z,78845.94
2023-01-29T10:03:27.635Z,78827.53
2023-01-29T10:11:01.803Z,78831.63
2023-01-29T10:18:27.964Z,78829.56
2023-01-29T10:25:33.473Z,78821.41
2023-01-29T10:32:37.597Z,78819.34
2023-01-29T10:39:42.733Z,78800.94
2023-01-29T10:47:03.188Z,78792.78
2023-01-29T10:54:37.808Z,78786.63
2023-01-29T11:01:39.845Z,78790.72
2023-01-29T11:08:52.137Z,78768.22
2023-01-29T11:15:54.297Z,78758.00
2023-01-29T11:22:56.570Z,78745.72
2023-01-29T11:29:58.842Z,78741.66
2023-01-29T11:37:05.580Z,78725.28
2023-01-29T11:44:21.832Z,78717.09
2023-01-29T11:51:27.777Z,78694.63
2023-01-29T11:58:32.073Z,78684.38
2023-01-29T12:05:34.304Z,78676.22
2023-01-29T12:12:41.269Z,78665.97
2023-01-29T12:19:48.582Z,78643.50
2023-01-29T12:26:55.968Z,78653.72
2023-01-29T12:34:22.045Z,78639.41
2023-01-29T12:41:39.967Z,78635.31
2023-01-29T12:48:43.186Z,78627.13
2023-01-29T12:55:59.238Z,78629.19
2023-01-29T13:03:01.427Z,78627.13
2023-01-29T13:10:26.228Z,78639.41
2023-01-29T13:17:31.065Z,78647.59
2023-01-29T13:24:40.890Z,78616.91
2023-01-29T13:31:48.297Z,78623.03
2023-01-29T13:39:06.743Z,78618.97
2023-01-29T13:46:21.817Z,78627.13
2023-01-29T13:53:43.825Z,78621.00
2023-01-29T14:00:45.819Z,78618.97
2023-01-29T14:07:50.963Z,78618.97
2023-01-29T14:14:56.969Z,78606.69
2023-01-29T14:21:59.614Z,78588.28
2023-01-29T14:29:18.772Z,78582.16
2023-01-29T14:36:27.051Z,78586.25
2023-01-29T14:43:29.956Z,78592.38
2023-01-29T14:50:32.493Z,78576.00
2023-01-29T14:57:34.954Z,78573.97
2023-01-29T15:04:48.497Z,78553.53
2023-01-29T15:12:03.577Z,78557.59
2023-01-29T15:19:29.291Z,78563.75
2023-01-29T15:26:31.429Z,78553.53
2023-01-29T15:33:34.361Z,78557.59
2023-01-29T15:40:36.928Z,78551.47
2023-01-29T15:47:43.082Z,78537.16
2023-01-29T15:54:47.800Z,78545.34
2023-01-29T16:01:51.315Z,78531.03
2023-01-29T16:08:56.795Z,78537.16
2023-01-29T16:16:02.162Z,78547.38
2023-01-29T16:23:06.847Z,78539.22
2023-01-29T16:30:15.103Z,78524.91
2023-01-29T16:37:30.819Z,78533.06
2023-01-29T16:44:39.951Z,78518.75
2023-01-29T16:51:42.647Z,78516.72
2023-01-29T16:58:50.816Z,78510.59
2023-01-29T17:05:54.065Z,78496.25
2023-01-29T17:13:09.847Z,78498.31
2023-01-29T17:20:18.721Z,78488.09
2023-01-29T17:27:25.371Z,78486.03
2023-01-29T17:34:28.271Z,78471.72
2023-01-29T17:41:31.997Z,78461.50
2023-01-29T17:48:34.559Z,78441.06
2023-01-29T17:55:37.558Z,78432.88
2023-01-29T18:02:40.779Z,78424.69
2023-01-29T18:09:45.702Z,78426.75
2023-01-29T18:16:49.075Z,78439.00
2023-01-29T18:23:54.442Z,78426.75
2023-01-29T18:30:58.707Z,78416.53
2023-01-29T18:38:03.024Z,78404.25
2023-01-29T18:45:11.882Z,78394.03
2023-01-29T18:52:18.062Z,78396.06
2023-01-29T18:59:20.973Z,78385.84
2023-01-29T19:06:27.523Z,78381.75
2023-01-29T19:13:31.663Z,78373.59
2023-01-29T19:20:34.747Z,78371.53
2023-01-29T19:27:37.410Z,78369.50
2023-01-29T19:34:40.975Z,78367.44
2023-01-29T19:41:44.433Z,78353.13
2023-01-29T19:48:47.792Z,78357.22
2023-01-29T19:56:02.054Z,78353.13
2023-01-29T20:03:11.756Z,78334.72
2023-01-29T20:10:18.935Z,78324.50
2023-01-29T20:17:22.894Z,78328.59
2023-01-29T20:24:26.909Z,78316.34
2023-01-29T20:31:30.450Z,78312.25
2023-01-29T20:38:35.462Z,78302.03
2023-01-29T20:45:41.324Z,78299.97
2023-01-29T20:52:46.228Z,78299.97
2023-01-29T20:59:49.497Z,78289.75
2023-01-29T21:06:52.063Z,78283.63
2023-01-29T21:14:01.149Z,78263.16
2023-01-29T21:21:29.368Z,78252.94
2023-01-29T21:28:40.599Z,78236.59
2023-01-29T21:35:48.914Z,78240.69
2023-01-29T21:43:13.999Z,78216.16
2023-01-29T21:50:20.150Z,78205.91
2023-01-29T21:57:30.404Z,78197.75
2023-01-29T22:04:36.594Z,78179.34
2023-01-29T22:11:44.850Z,78177.31
2023-01-29T22:18:52.798Z,78160.94
2023-01-29T22:26:03.984Z,78142.53
2023-01-29T22:33:09.428Z,78136.41
2023-01-29T22:40:14.910Z,78109.81
2023-01-29T22:47:19.247Z,78111.88
2023-01-29T22:54:23.295Z,78089.38
2023-01-29T23:01:30.019Z,78079.16
2023-01-29T23:08:33.343Z,78060.75
2023-01-29T23:15:35.466Z,78052.59
2023-01-29T23:22:37.546Z,78046.44
2023-01-29T23:29:39.581Z,78032.13
2023-01-29T23:36:42.007Z,78026.00
2023-01-29T23:43:44.138Z,78015.78
2023-01-29T23:50:46.439Z,78009.66
2023-01-29T23:57:48.722Z,77991.25
